sensor_id;sensor_type;location;lat;lon;timestamp;P1;durP1;ratioP1;P2;durP2;ratioP2
37903;SDS011;23738;50.422;18.758;2023-03-01T07:50:02;149.10;;;66.40;;
37903;SDS011;23738;50.422;18.758;2023-03-01T07:52:31;137.60;;;64.20;;
37903;SDS011;23738;50.422;18.758;2023-03-01T07:54:58;133.10;;;59.40;;
37903;SDS011;23738;50.422;18.758;2023-03-01T07:57:25;120.40;;;53.80;;
37903;SDS011;23738;50.422;18.758;2023-03-01T07:59:52;117.90;;;52.40;;
37903;SDS011;23738;50.422;18.758;2023-03-01T08:02:20;109.40;;;50.50;;
37903;SDS011;23738;50.422;18.758;2023-03-01T08:04:47;109.30;;;51.30;;
37903;SDS011;23738;50.422;18.758;2023-03-01T08:07:14;104.10;;;47.00;;
37903;SDS011;23738;50.422;18.758;2023-03-01T08:09:42;92.00;;;43.80;;
37903;SDS011;23738;50.422;18.758;2023-03-01T08:12:09;83.10;;;36.80;;
37903;SDS011;23738;50.422;18.758;2023-03-01T08:14:36;73.20;;;33.20;;
37903;SDS011;23738;50.422;18.758;2023-03-01T08:17:03;73.30;;;34.60;;
37903;SDS011;23738;50.422;18.758;2023-03-01T08:19:31;73.80;;;36.30;;
37903;SDS011;23738;50.422;18.758;2023-03-01T08:22:00;89.20;;;40.60;;
37903;SDS011;23738;50.422;18.758;2023-03-01T08:24:28;85.30;;;41.60;;
37903;SDS011;23738;50.422;18.758;2023-03-01T08:26:56;72.60;;;34.80;;
37903;SDS011;23738;50.422;18.758;2023-03-01T08:29:23;63.80;;;34.20;;
37903;SDS011;23738;50.422;18.758;2023-03-01T08:31:50;70.00;;;33.20;;
37903;SDS011;23738;50.422;18.758;2023-03-01T08:34:18;56.40;;;30.20;;
37903;SDS011;23738;50.422;18.758;2023-03-01T08:36:46;57.70;;;30.40;;
37903;SDS011;23738;50.422;18.758;2023-03-01T08:39:14;50.60;;;27.90;;
37903;SDS011;23738;50.422;18.758;2023-03-01T08:41:42;49.90;;;26.60;;
37903;SDS011;23738;50.422;18.758;2023-03-01T08:44:10;42.20;;;24.80;;
37903;SDS011;23738;50.422;18.758;2023-03-01T08:46:39;41.20;;;24.40;;
37903;SDS011;23738;50.422;18.758;2023-03-01T08:49:09;37.10;;;22.60;;
37903;SDS011;23738;50.422;18.758;2023-03-01T08:51:38;37.90;;;21.90;;
37903;SDS011;23738;50.422;18.758;2023-03-01T08:54:06;38.10;;;20.10;;
37903;SDS011;23738;50.422;18.758;2023-03-01T08:56:37;38.70;;;19.90;;
37903;SDS011;23738;50.422;18.758;2023-03-01T08:59:04;33.90;;;21.90;;
37903;SDS011;23738;50.422;18.758;2023-03-01T09:01:32;28.10;;;19.70;;
37903;SDS011;23738;50.422;18.758;2023-03-01T09:04:00;30.20;;;20.20;;
37903;SDS011;23738;50.422;18.758;2023-03-01T09:06:30;27.70;;;18.70;;
37903;SDS011;23738;50.422;18.758;2023-03-01T09:08:59;30.20;;;19.00;;
37903;SDS011;23738;50.422;18.758;2023-03-01T09:11:27;29.80;;;18.20;;
37903;SDS011;23738;50.422;18.758;2023-03-01T09:13:55;27.40;;;17.60;;
37903;SDS011;23738;50.422;18.758;2023-03-01T09:16:22;24.30;;;17.40;;
37903;SDS011;23738;50.422;18.758;2023-03-01T09:18:50;31.90;;;19.00;;
37903;SDS011;23738;50.422;18.758;2023-03-01T09:21:19;35.90;;;22.10;;
37903;SDS011;23738;50.422;18.758;2023-03-01T09:23:48;55.10;;;28.80;;
37903;SDS011;23738;50.422;18.758;2023-03-01T09:26:17;45.80;;;27.00;;
37903;SDS011;23738;50.422;18.758;2023-03-01T09:28:47;53.60;;;29.00;;
37903;SDS011;23738;50.422;18.758;2023-03-01T09:31:16;36.20;;;22.20;;
37903;SDS011;23738;50.422;18.758;2023-03-01T09:33:46;39.60;;;21.80;;
37903;SDS011;23738;50.422;18.758;2023-03-01T09:36:15;31.90;;;19.30;;
37903;SDS011;23738;50.422;18.758;2023-03-01T09:38:43;32.60;;;19.20;;
37903;SDS011;23738;50.422;18.758;2023-03-01T09:41:17;26.90;;;17.90;;
37903;SDS011;23738;50.422;18.758;2023-03-01T09:43:55;29.80;;;18.60;;
37903;SDS011;23738;50.422;18.758;2023-03-01T09:46:26;34.40;;;19.90;;
37903;SDS011;23738;50.422;18.758;2023-03-01T09:48:55;29.30;;;18.70;;
37903;SDS011;23738;50.422;18.758;2023-03-01T09:51:29;35.80;;;18.90;;
37903;SDS011;23738;50.422;18.758;2023-03-01T09:53:58;32.10;;;19.40;;
37903;SDS011;23738;50.422;18.758;2023-03-01T09:56:28;32.20;;;18.90;;
37903;SDS011;23738;50.422;18.758;2023-03-01T09:59:02;33.50;;;18.80;;
37903;SDS011;23738;50.422;18.758;2023-03-01T10:01:45;30.80;;;17.90;;
37903;SDS011;23738;50.422;18.758;2023-03-01T10:04:26;26.90;;;17.10;;
37903;SDS011;23738;50.422;18.758;2023-03-01T10:07:05;27.50;;;17.00;;
37903;SDS011;23738;50.422;18.758;2023-03-01T10:09:44;27.70;;;17.70;;
37903;SDS011;23738;50.422;18.758;2023-03-01T10:12:13;24.10;;;16.20;;
37903;SDS011;23738;50.422;18.758;2023-03-01T10:14:47;29.00;;;16.60;;
37903;SDS011;23738;50.422;18.758;2023-03-01T10:17:26;22.10;;;17.00;;
37903;SDS011;23738;50.422;18.758;2023-03-01T10:19:58;23.20;;;16.40;;
37903;SDS011;23738;50.422;18.758;2023-03-01T10:25:17;25.60;;;17.00;;
37903;SDS011;23738;50.422;18.758;2023-03-01T10:27:58;28.40;;;18.30;;
37903;SDS011;23738;50.422;18.758;2023-03-01T10:30:34;21.70;;;17.10;;
37903;SDS011;23738;50.422;18.758;2023-03-01T10:33:05;24.80;;;17.50;;
37903;SDS011;23738;50.422;18.758;2023-03-01T10:35:43;22.90;;;17.50;;
37903;SDS011;23738;50.422;18.758;2023-03-01T10:38:11;24.90;;;17.70;;
37903;SDS011;23738;50.422;18.758;2023-03-01T10:40:50;24.90;;;17.80;;
37903;SDS011;23738;50.422;18.758;2023-03-01T10:43:19;22.50;;;17.00;;
37903;SDS011;23738;50.422;18.758;2023-03-01T10:45:47;25.10;;;18.60;;
37903;SDS011;23738;50.422;18.758;2023-03-01T10:48:16;20.20;;;16.40;;
37903;SDS011;23738;50.422;18.758;2023-03-01T10:50:46;24.90;;;16.80;;
37903;SDS011;23738;50.422;18.758;2023-03-01T10:53:25;23.70;;;17.30;;
37903;SDS011;23738;50.422;18.758;2023-03-01T10:56:00;24.40;;;17.60;;
37903;SDS011;23738;50.422;18.758;2023-03-01T10:58:29;25.80;;;16.70;;
37903;SDS011;23738;50.422;18.758;2023-03-01T11:00:58;25.00;;;16.30;;
37903;SDS011;23738;50.422;18.758;2023-03-01T11:03:28;18.80;;;16.00;;
37903;SDS011;23738;50.422;18.758;2023-03-01T11:05:58;17.50;;;15.20;;
37903;SDS011;23738;50.422;18.758;2023-03-01T11:08:31;23.20;;;16.70;;
37903;SDS011;23738;50.422;18.758;2023-03-01T11:11:14;21.90;;;17.20;;
37903;SDS011;23738;50.422;18.758;2023-03-01T11:13:49;22.60;;;17.40;;
37903;SDS011;23738;50.422;18.758;2023-03-01T11:16:23;21.10;;;16.20;;
37903;SDS011;23738;50.422;18.758;2023-03-01T11:19:13;26.90;;;17.00;;
37903;SDS011;23738;50.422;18.758;2023-03-01T11:21:44;23.50;;;17.60;;
37903;SDS011;23738;50.422;18.758;2023-03-01T11:24:16;21.90;;;17.40;;
37903;SDS011;23738;50.422;18.758;2023-03-01T11:26:47;18.50;;;14.70;;
37903;SDS011;23738;50.422;18.758;2023-03-01T11:29:25;14.70;;;13.20;;
37903;SDS011;23738;50.422;18.758;2023-03-01T11:31:57;17.60;;;14.00;;
37903;SDS011;23738;50.422;18.758;2023-03-01T11:34:31;15.30;;;13.50;;
37903;SDS011;23738;50.422;18.758;2023-03-01T11:37:09;17.10;;;13.30;;
37903;SDS011;23738;50.422;18.758;2023-03-01T11:39:43;17.40;;;13.50;;
37903;SDS011;23738;50.422;18.758;2023-03-01T11:42:24;14.90;;;12.50;;
37903;SDS011;23738;50.422;18.758;2023-03-01T11:44:58;14.70;;;13.20;;
37903;SDS011;23738;50.422;18.758;2023-03-01T11:47:32;14.10;;;12.60;;
37903;SDS011;23738;50.422;18.758;2023-03-01T11:53:01;13.80;;;12.00;;
37903;SDS011;23738;50.422;18.758;2023-03-01T11:55:49;22.50;;;13.80;;
37903;SDS011;23738;50.422;18.758;2023-03-01T11:58:34;14.50;;;13.00;;
37903;SDS011;23738;50.422;18.758;2023-03-01T12:01:12;14.20;;;11.80;;
37903;SDS011;23738;50.422;18.758;2023-03-01T12:03:54;17.40;;;13.00;;
37903;SDS011;23738;50.422;18.758;2023-03-01T12:06:53;19.50;;;13.60;;
37903;SDS011;23738;50.422;18.758;2023-03-01T12:09:32;14.10;;;12.70;;
37903;SDS011;23738;50.422;18.758;2023-03-01T12:12:25;13.60;;;11.70;;
37903;SDS011;23738;50.422;18.758;2023-03-01T12:18:05;13.20;;;11.80;;
37903;SDS011;23738;50.422;18.758;2023-03-01T12:20:44;14.60;;;12.70;;
37903;SDS011;23738;50.422;18.758;2023-03-01T12:23:28;14.90;;;12.30;;
37903;SDS011;23738;50.422;18.758;2023-03-01T12:26:13;14.00;;;12.60;;
37903;SDS011;23738;50.422;18.758;2023-03-01T12:28:54;15.60;;;12.40;;
37903;SDS011;23738;50.422;18.758;2023-03-01T12:31:44;13.30;;;11.40;;
37903;SDS011;23738;50.422;18.758;2023-03-01T12:34:29;13.40;;;11.20;;
37903;SDS011;23738;50.422;18.758;2023-03-01T12:37:22;14.10;;;11.90;;
37903;SDS011;23738;50.422;18.758;2023-03-01T12:40:01;12.00;;;10.80;;
37903;SDS011;23738;50.422;18.758;2023-03-01T12:42:44;12.40;;;10.60;;
37903;SDS011;23738;50.422;18.758;2023-03-01T12:48:19;12.40;;;11.00;;
37903;SDS011;23738;50.422;18.758;2023-03-01T12:50:59;17.60;;;11.40;;
37903;SDS011;23738;50.422;18.758;2023-03-01T12:53:30;16.20;;;12.60;;
37903;SDS011;23738;50.422;18.758;2023-03-01T12:56:01;13.70;;;11.50;;
37903;SDS011;23738;50.422;18.758;2023-03-01T12:58:32;12.90;;;11.60;;
37903;SDS011;23738;50.422;18.758;2023-03-01T13:01:05;18.50;;;15.00;;
37903;SDS011;23738;50.422;18.758;2023-03-01T13:03:48;19.10;;;15.80;;
37903;SDS011;23738;50.422;18.758;2023-03-01T13:06:29;28.30;;;21.50;;
37903;SDS011;23738;50.422;18.758;2023-03-01T13:09:04;21.40;;;18.90;;
37903;SDS011;23738;50.422;18.758;2023-03-01T13:11:41;15.50;;;12.80;;
37903;SDS011;23738;50.422;18.758;2023-03-01T13:22:40;15.10;;;11.50;;
37903;SDS011;23738;50.422;18.758;2023-03-01T13:25:13;11.80;;;10.60;;
37903;SDS011;23738;50.422;18.758;2023-03-01T13:27:43;13.30;;;11.20;;
37903;SDS011;23738;50.422;18.758;2023-03-01T13:36:06;13.30;;;10.60;;
37903;SDS011;23738;50.422;18.758;2023-03-01T13:38:39;11.50;;;10.40;;
37903;SDS011;23738;50.422;18.758;2023-03-01T13:41:12;12.90;;;11.40;;
37903;SDS011;23738;50.422;18.758;2023-03-01T13:43:41;12.30;;;10.90;;
37903;SDS011;23738;50.422;18.758;2023-03-01T13:46:11;14.60;;;10.90;;
37903;SDS011;23738;50.422;18.758;2023-03-01T13:48:43;16.10;;;11.80;;
37903;SDS011;23738;50.422;18.758;2023-03-01T13:51:13;14.30;;;11.90;;
37903;SDS011;23738;50.422;18.758;2023-03-01T13:53:41;20.20;;;14.80;;
37903;SDS011;23738;50.422;18.758;2023-03-01T13:56:12;15.30;;;13.50;;
37903;SDS011;23738;50.422;18.758;2023-03-01T13:58:47;16.00;;;13.00;;
37903;SDS011;23738;50.422;18.758;2023-03-01T14:01:24;17.70;;;13.00;;
37903;SDS011;23738;50.422;18.758;2023-03-01T14:03:54;17.90;;;13.30;;
37903;SDS011;23738;50.422;18.758;2023-03-01T14:06:22;13.40;;;11.80;;
37903;SDS011;23738;50.422;18.758;2023-03-01T14:08:52;14.10;;;12.00;;
37903;SDS011;23738;50.422;18.758;2023-03-01T14:11:43;15.10;;;11.70;;
37903;SDS011;23738;50.422;18.758;2023-03-01T14:17:12;16.40;;;11.50;;
37903;SDS011;23738;50.422;18.758;2023-03-01T14:19:54;14.20;;;11.40;;
37903;SDS011;23738;50.422;18.758;2023-03-01T14:22:24;18.20;;;12.70;;
37903;SDS011;23738;50.422;18.758;2023-03-01T14:24:55;17.80;;;12.70;;
37903;SDS011;23738;50.422;18.758;2023-03-01T14:27:26;57.50;;;25.70;;
37903;SDS011;23738;50.422;18.758;2023-03-01T14:29:56;29.50;;;16.70;;
37903;SDS011;23738;50.422;18.758;2023-03-01T14:32:26;19.50;;;12.70;;
37903;SDS011;23738;50.422;18.758;2023-03-01T14:34:56;14.10;;;10.90;;
37903;SDS011;23738;50.422;18.758;2023-03-01T14:37:25;15.80;;;10.80;;
37903;SDS011;23738;50.422;18.758;2023-03-01T14:39:54;13.70;;;11.50;;
37903;SDS011;23738;50.422;18.758;2023-03-01T14:42:23;16.70;;;13.60;;
37903;SDS011;23738;50.422;18.758;2023-03-01T14:44:54;15.90;;;11.70;;
37903;SDS011;23738;50.422;18.758;2023-03-01T14:47:25;17.80;;;11.30;;
37903;SDS011;23738;50.422;18.758;2023-03-01T14:49:57;13.70;;;10.90;;
37903;SDS011;23738;50.422;18.758;2023-03-01T14:52:28;14.90;;;10.80;;
37903;SDS011;23738;50.422;18.758;2023-03-01T14:55:00;17.40;;;12.50;;
37903;SDS011;23738;50.422;18.758;2023-03-01T14:57:28;18.90;;;12.10;;
37903;SDS011;23738;50.422;18.758;2023-03-01T14:59:57;20.70;;;11.90;;
37903;SDS011;23738;50.422;18.758;2023-03-01T15:02:28;16.80;;;12.30;;
37903;SDS011;23738;50.422;18.758;2023-03-01T15:04:58;16.70;;;11.80;;
37903;SDS011;23738;50.422;18.758;2023-03-01T15:07:30;18.20;;;12.10;;
37903;SDS011;23738;50.422;18.758;2023-03-01T15:10:00;21.00;;;13.60;;
37903;SDS011;23738;50.422;18.758;2023-03-01T15:12:39;22.60;;;13.70;;
37903;SDS011;23738;50.422;18.758;2023-03-01T15:15:20;24.80;;;14.20;;
37903;SDS011;23738;50.422;18.758;2023-03-01T15:17:59;20.90;;;13.00;;
37903;SDS011;23738;50.422;18.758;2023-03-01T15:20:28;19.10;;;13.30;;
37903;SDS011;23738;50.422;18.758;2023-03-01T15:23:00;21.80;;;14.10;;
37903;SDS011;23738;50.422;18.758;2023-03-01T15:25:30;21.70;;;13.50;;
37903;SDS011;23738;50.422;18.758;2023-03-01T15:27:58;22.30;;;14.80;;
37903;SDS011;23738;50.422;18.758;2023-03-01T15:30:28;23.20;;;15.40;;
37903;SDS011;23738;50.422;18.758;2023-03-01T15:36:04;19.80;;;13.50;;
37903;SDS011;23738;50.422;18.758;2023-03-01T15:38:58;22.10;;;14.30;;
37903;SDS011;23738;50.422;18.758;2023-03-01T15:41:26;24.00;;;15.70;;
37903;SDS011;23738;50.422;18.758;2023-03-01T15:43:57;28.40;;;16.70;;
37903;SDS011;23738;50.422;18.758;2023-03-01T15:46:26;28.20;;;16.60;;
37903;SDS011;23738;50.422;18.758;2023-03-01T15:48:57;38.50;;;18.90;;
37903;SDS011;23738;50.422;18.758;2023-03-01T15:51:28;30.20;;;19.00;;
37903;SDS011;23738;50.422;18.758;2023-03-01T15:54:00;41.80;;;23.30;;
37903;SDS011;23738;50.422;18.758;2023-03-01T15:56:30;44.90;;;26.70;;
37903;SDS011;23738;50.422;18.758;2023-03-01T15:59:01;47.00;;;24.40;;
37903;SDS011;23738;50.422;18.758;2023-03-01T16:01:29;46.80;;;25.40;;
37903;SDS011;23738;50.422;18.758;2023-03-01T16:03:59;41.40;;;23.90;;
37903;SDS011;23738;50.422;18.758;2023-03-01T16:06:27;40.30;;;23.60;;
37903;SDS011;23738;50.422;18.758;2023-03-01T16:08:54;46.90;;;25.90;;
37903;SDS011;23738;50.422;18.758;2023-03-01T16:11:22;48.00;;;25.20;;
37903;SDS011;23738;50.422;18.758;2023-03-01T16:13:49;57.40;;;28.20;;
37903;SDS011;23738;50.422;18.758;2023-03-01T16:16:17;53.10;;;26.90;;
37903;SDS011;23738;50.422;18.758;2023-03-01T16:18:45;57.40;;;27.10;;
37903;SDS011;23738;50.422;18.758;2023-03-01T16:21:14;68.70;;;32.10;;
37903;SDS011;23738;50.422;18.758;2023-03-01T16:23:43;68.70;;;33.00;;
37903;SDS011;23738;50.422;18.758;2023-03-01T16:26:11;149.70;;;65.70;;
37903;SDS011;23738;50.422;18.758;2023-03-01T16:28:38;181.60;;;81.90;;
37903;SDS011;23738;50.422;18.758;2023-03-01T16:31:07;136.50;;;57.80;;
37903;SDS011;23738;50.422;18.758;2023-03-01T16:33:34;171.10;;;72.20;;
37903;SDS011;23738;50.422;18.758;2023-03-01T16:36:05;177.70;;;77.40;;
37903;SDS011;23738;50.422;18.758;2023-03-01T16:38:34;201.20;;;84.90;;
37903;SDS011;23738;50.422;18.758;2023-03-01T16:41:02;137.30;;;57.90;;
37903;SDS011;23738;50.422;18.758;2023-03-01T16:43:29;185.40;;;81.30;;
37903;SDS011;23738;50.422;18.758;2023-03-01T16:45:57;144.60;;;62.50;;
37903;SDS011;23738;50.422;18.758;2023-03-01T16:48:24;119.30;;;51.70;;
37903;SDS011;23738;50.422;18.758;2023-03-01T16:50:58;102.60;;;47.10;;
37903;SDS011;23738;50.422;18.758;2023-03-01T16:53:26;109.30;;;47.20;;
37903;SDS011;23738;50.422;18.758;2023-03-01T16:55:54;107.40;;;47.60;;
37903;SDS011;23738;50.422;18.758;2023-03-01T16:58:22;102.20;;;46.30;;
37903;SDS011;23738;50.422;18.758;2023-03-01T17:00:50;95.10;;;43.00;;
37903;SDS011;23738;50.422;18.758;2023-03-01T17:03:19;87.90;;;40.80;;
37903;SDS011;23738;50.422;18.758;2023-03-01T17:05:46;86.00;;;38.20;;
37903;SDS011;23738;50.422;18.758;2023-03-01T17:08:14;83.00;;;38.20;;
37903;SDS011;23738;50.422;18.758;2023-03-01T17:10:42;83.80;;;37.30;;
37903;SDS011;23738;50.422;18.758;2023-03-01T17:13:10;85.60;;;36.80;;
37903;SDS011;23738;50.422;18.758;2023-03-01T17:15:38;80.50;;;35.60;;
37903;SDS011;23738;50.422;18.758;2023-03-01T17:18:06;80.80;;;36.10;;
37903;SDS011;23738;50.422;18.758;2023-03-01T17:20:34;77.80;;;35.90;;
37903;SDS011;23738;50.422;18.758;2023-03-01T17:23:01;86.90;;;40.20;;
37903;SDS011;23738;50.422;18.758;2023-03-01T17:25:29;95.50;;;39.20;;
37903;SDS011;23738;50.422;18.758;2023-03-01T17:27:56;83.60;;;39.40;;
37903;SDS011;23738;50.422;18.758;2023-03-01T17:30:24;84.90;;;39.20;;
37903;SDS011;23738;50.422;18.758;2023-03-01T17:32:51;87.60;;;39.70;;
37903;SDS011;23738;50.422;18.758;2023-03-01T17:35:20;85.20;;;37.70;;
37903;SDS011;23738;50.422;18.758;2023-03-01T17:37:47;89.60;;;38.80;;
37903;SDS011;23738;50.422;18.758;2023-03-01T17:40:15;89.70;;;40.60;;
37903;SDS011;23738;50.422;18.758;2023-03-01T17:42:43;86.10;;;37.70;;
37903;SDS011;23738;50.422;18.758;2023-03-01T17:45:10;90.80;;;43.00;;
37903;SDS011;23738;50.422;18.758;2023-03-01T17:47:38;103.10;;;45.20;;
37903;SDS011;23738;50.422;18.758;2023-03-01T17:50:06;115.70;;;50.30;;
37903;SDS011;23738;50.422;18.758;2023-03-01T17:52:35;110.40;;;45.20;;
37903;SDS011;23738;50.422;18.758;2023-03-01T17:55:02;100.10;;;45.50;;
37903;SDS011;23738;50.422;18.758;2023-03-01T17:57:30;102.60;;;42.40;;
37903;SDS011;23738;50.422;18.758;2023-03-01T17:59:58;106.00;;;42.90;;
37903;SDS011;23738;50.422;18.758;2023-03-01T18:02:25;93.50;;;42.00;;
37903;SDS011;23738;50.422;18.758;2023-03-01T18:04:56;98.90;;;41.80;;
37903;SDS011;23738;50.422;18.758;2023-03-01T18:07:25;98.20;;;41.50;;
37903;SDS011;23738;50.422;18.758;2023-03-01T18:09:52;99.60;;;40.80;;
37903;SDS011;23738;50.422;18.758;2023-03-01T18:12:20;93.60;;;40.60;;
37903;SDS011;23738;50.422;18.758;2023-03-01T18:14:48;90.60;;;38.20;;
37903;SDS011;23738;50.422;18.758;2023-03-01T18:17:18;89.60;;;39.80;;
37903;SDS011;23738;50.422;18.758;2023-03-01T18:19:45;82.50;;;38.30;;
37903;SDS011;23738;50.422;18.758;2023-03-01T18:22:13;90.60;;;38.80;;
37903;SDS011;23738;50.422;18.758;2023-03-01T18:24:41;95.90;;;37.90;;
37903;SDS011;23738;50.422;18.758;2023-03-01T18:27:09;84.70;;;37.80;;
37903;SDS011;23738;50.422;18.758;2023-03-01T18:29:36;85.40;;;38.00;;
37903;SDS011;23738;50.422;18.758;2023-03-01T18:32:04;81.80;;;37.30;;
37903;SDS011;23738;50.422;18.758;2023-03-01T18:34:32;90.40;;;38.20;;
37903;SDS011;23738;50.422;18.758;2023-03-01T18:36:59;83.40;;;36.50;;
37903;SDS011;23738;50.422;18.758;2023-03-01T18:39:27;97.40;;;37.90;;
37903;SDS011;23738;50.422;18.758;2023-03-01T18:41:54;87.20;;;37.70;;
37903;SDS011;23738;50.422;18.758;2023-03-01T18:44:21;81.20;;;36.30;;
37903;SDS011;23738;50.422;18.758;2023-03-01T18:46:49;89.20;;;38.00;;
37903;SDS011;23738;50.422;18.758;2023-03-01T18:49:17;86.00;;;37.10;;
37903;SDS011;23738;50.422;18.758;2023-03-01T18:51:45;85.40;;;35.90;;
37903;SDS011;23738;50.422;18.758;2023-03-01T18:54:12;83.80;;;35.70;;
37903;SDS011;23738;50.422;18.758;2023-03-01T18:56:39;72.10;;;32.80;;
37903;SDS011;23738;50.422;18.758;2023-03-01T18:59:07;82.00;;;34.60;;
37903;SDS011;23738;50.422;18.758;2023-03-01T19:01:34;69.80;;;30.80;;
37903;SDS011;23738;50.422;18.758;2023-03-01T19:04:02;70.70;;;31.20;;
37903;SDS011;23738;50.422;18.758;2023-03-01T19:06:30;65.50;;;31.20;;
37903;SDS011;23738;50.422;18.758;2023-03-01T19:08:59;70.30;;;31.70;;
37903;SDS011;23738;50.422;18.758;2023-03-01T19:11:26;64.90;;;29.50;;
37903;SDS011;23738;50.422;18.758;2023-03-01T19:13:55;68.10;;;30.10;;
37903;SDS011;23738;50.422;18.758;2023-03-01T19:16:25;65.10;;;30.80;;
37903;SDS011;23738;50.422;18.758;2023-03-01T19:18:54;78.30;;;32.50;;
37903;SDS011;23738;50.422;18.758;2023-03-01T19:21:24;62.00;;;30.40;;
37903;SDS011;23738;50.422;18.758;2023-03-01T19:23:53;78.20;;;33.30;;
37903;SDS011;23738;50.422;18.758;2023-03-01T19:26:22;82.00;;;36.10;;
37903;SDS011;23738;50.422;18.758;2023-03-01T19:28:51;90.60;;;39.60;;
37903;SDS011;23738;50.422;18.758;2023-03-01T19:31:20;94.40;;;41.70;;
37903;SDS011;23738;50.422;18.758;2023-03-01T19:33:50;113.20;;;49.90;;
37903;SDS011;23738;50.422;18.758;2023-03-01T19:36:18;110.80;;;48.60;;
37903;SDS011;23738;50.422;18.758;2023-03-01T19:38:46;128.40;;;58.00;;
37903;SDS011;23738;50.422;18.758;2023-03-01T19:41:15;122.40;;;53.50;;
37903;SDS011;23738;50.422;18.758;2023-03-01T19:43:43;133.00;;;58.30;;
37903;SDS011;23738;50.422;18.758;2023-03-01T19:46:12;125.20;;;55.90;;
37903;SDS011;23738;50.422;18.758;2023-03-01T19:48:41;123.50;;;53.60;;
37903;SDS011;23738;50.422;18.758;2023-03-01T19:51:09;119.40;;;52.40;;
37903;SDS011;23738;50.422;18.758;2023-03-01T19:53:38;105.30;;;47.10;;
37903;SDS011;23738;50.422;18.758;2023-03-01T19:56:07;131.60;;;58.90;;
37903;SDS011;23738;50.422;18.758;2023-03-01T19:58:34;115.30;;;49.00;;
37903;SDS011;23738;50.422;18.758;2023-03-01T20:01:03;98.60;;;47.30;;
37903;SDS011;23738;50.422;18.758;2023-03-01T20:03:38;110.10;;;48.80;;
37903;SDS011;23738;50.422;18.758;2023-03-01T20:06:07;126.50;;;53.90;;
37903;SDS011;23738;50.422;18.758;2023-03-01T20:08:36;143.40;;;66.00;;
37903;SDS011;23738;50.422;18.758;2023-03-01T20:11:04;165.10;;;73.20;;
37903;SDS011;23738;50.422;18.758;2023-03-01T20:13:33;162.20;;;72.80;;
37903;SDS011;23738;50.422;18.758;2023-03-01T20:16:01;149.50;;;68.50;;
37903;SDS011;23738;50.422;18.758;2023-03-01T20:18:28;138.50;;;64.50;;
37903;SDS011;23738;50.422;18.758;2023-03-01T20:20:56;134.40;;;59.70;;
37903;SDS011;23738;50.422;18.758;2023-03-01T20:23:25;159.60;;;62.70;;
37903;SDS011;23738;50.422;18.758;2023-03-01T20:25:59;202.40;;;76.00;;
37903;SDS011;23738;50.422;18.758;2023-03-01T20:28:28;266.10;;;95.60;;
37903;SDS011;23738;50.422;18.758;2023-03-01T20:30:55;202.90;;;77.00;;
37903;SDS011;23738;50.422;18.758;2023-03-01T20:33:28;191.70;;;71.60;;
37903;SDS011;23738;50.422;18.758;2023-03-01T20:35:56;194.60;;;74.50;;
37903;SDS011;23738;50.422;18.758;2023-03-01T20:38:23;201.00;;;77.10;;
37903;SDS011;23738;50.422;18.758;2023-03-01T20:40:56;235.90;;;86.80;;
37903;SDS011;23738;50.422;18.758;2023-03-01T20:43:25;220.00;;;83.10;;
37903;SDS011;23738;50.422;18.758;2023-03-01T20:45:52;195.00;;;74.70;;
37903;SDS011;23738;50.422;18.758;2023-03-01T20:48:20;190.90;;;74.10;;
37903;SDS011;23738;50.422;18.758;2023-03-01T20:50:47;204.00;;;76.90;;
37903;SDS011;23738;50.422;18.758;2023-03-01T20:53:15;187.10;;;76.00;;
37903;SDS011;23738;50.422;18.758;2023-03-01T20:55:42;192.10;;;74.80;;
37903;SDS011;23738;50.422;18.758;2023-03-01T20:58:09;184.90;;;72.70;;
37903;SDS011;23738;50.422;18.758;2023-03-01T21:00:36;173.20;;;66.10;;
37903;SDS011;23738;50.422;18.758;2023-03-01T21:03:04;193.50;;;72.40;;
37903;SDS011;23738;50.422;18.758;2023-03-01T21:05:31;174.90;;;65.80;;
37903;SDS011;23738;50.422;18.758;2023-03-01T21:07:58;166.20;;;62.00;;
37903;SDS011;23738;50.422;18.758;2023-03-01T21:10:27;152.70;;;61.60;;
37903;SDS011;23738;50.422;18.758;2023-03-01T21:12:55;153.10;;;60.20;;
37903;SDS011;23738;50.422;18.758;2023-03-01T21:15:23;146.60;;;57.50;;
37903;SDS011;23738;50.422;18.758;2023-03-01T21:17:50;136.00;;;55.30;;
37903;SDS011;23738;50.422;18.758;2023-03-01T21:20:18;137.90;;;54.80;;
37903;SDS011;23738;50.422;18.758;2023-03-01T21:22:45;138.10;;;53.60;;
37903;SDS011;23738;50.422;18.758;2023-03-01T21:25:12;140.40;;;58.50;;
37903;SDS011;23738;50.422;18.758;2023-03-01T21:27:40;143.10;;;57.40;;
37903;SDS011;23738;50.422;18.758;2023-03-01T21:30:09;157.20;;;63.20;;
37903;SDS011;23738;50.422;18.758;2023-03-01T21:32:37;151.10;;;61.50;;
37903;SDS011;23738;50.422;18.758;2023-03-01T21:35:06;152.20;;;58.10;;
37903;SDS011;23738;50.422;18.758;2023-03-01T21:37:34;163.70;;;62.50;;
37903;SDS011;23738;50.422;18.758;2023-03-01T21:40:03;172.50;;;66.00;;
37903;SDS011;23738;50.422;18.758;2023-03-01T21:42:33;200.30;;;74.40;;
37903;SDS011;23738;50.422;18.758;2023-03-01T21:45:04;214.30;;;80.10;;
37903;SDS011;23738;50.422;18.758;2023-03-01T21:47:32;205.00;;;77.60;;
37903;SDS011;23738;50.422;18.758;2023-03-01T21:50:00;185.60;;;73.20;;
37903;SDS011;23738;50.422;18.758;2023-03-01T21:52:28;193.30;;;76.50;;
37903;SDS011;23738;50.422;18.758;2023-03-01T21:54:55;191.30;;;75.40;;
37903;SDS011;23738;50.422;18.758;2023-03-01T21:57:26;188.20;;;74.50;;
37903;SDS011;23738;50.422;18.758;2023-03-01T21:59:53;192.40;;;74.20;;
37903;SDS011;23738;50.422;18.758;2023-03-01T22:02:22;177.20;;;71.30;;
37903;SDS011;23738;50.422;18.758;2023-03-01T22:04:51;175.20;;;68.80;;
37903;SDS011;23738;50.422;18.758;2023-03-01T22:07:22;160.80;;;65.90;;
37903;SDS011;23738;50.422;18.758;2023-03-01T22:09:49;151.20;;;61.90;;
37903;SDS011;23738;50.422;18.758;2023-03-01T22:12:16;169.10;;;65.10;;
37903;SDS011;23738;50.422;18.758;2023-03-01T22:14:43;155.60;;;61.60;;
37903;SDS011;23738;50.422;18.758;2023-03-01T22:17:11;148.30;;;61.20;;
37903;SDS011;23738;50.422;18.758;2023-03-01T22:19:38;162.80;;;61.80;;
37903;SDS011;23738;50.422;18.758;2023-03-01T22:22:05;176.80;;;67.70;;
37903;SDS011;23738;50.422;18.758;2023-03-01T22:24:32;160.10;;;61.90;;
37903;SDS011;23738;50.422;18.758;2023-03-01T22:26:59;150.90;;;57.80;;
37903;SDS011;23738;50.422;18.758;2023-03-01T22:29:27;149.10;;;60.10;;
37903;SDS011;23738;50.422;18.758;2023-03-01T22:31:55;141.30;;;58.60;;
37903;SDS011;23738;50.422;18.758;2023-03-01T22:34:23;147.20;;;58.50;;
37903;SDS011;23738;50.422;18.758;2023-03-01T22:36:50;150.40;;;58.10;;
37903;SDS011;23738;50.422;18.758;2023-03-01T22:39:18;165.90;;;65.60;;
37903;SDS011;23738;50.422;18.758;2023-03-01T22:41:47;180.80;;;67.80;;
37903;SDS011;23738;50.422;18.758;2023-03-01T22:44:15;212.50;;;77.00;;
37903;SDS011;23738;50.422;18.758;2023-03-01T22:46:44;214.70;;;76.20;;